.
WxDataArchive / Data Records for 2016-01-29
2016-01-28 January 2016 2016-01-30

Data Records for Friday, 29 January 2016

Time	Temp	Chill	HIndex	Humid	Dewpt	 Wind 	HiWind	WindDir	Rain 	Barom
-----	----	-----	------	-----	-----	------	------	-------	-----	-----
00:00	31.2	31.2	31.2	78	25.2	1	3	270	0.00	29.733 
00:05	31.3	31.3	31.3	78	25.3	1	4	270	0.00	29.733 
00:10	31.3	31.3	31.3	77	24.9	1	3	270	0.00	29.733 
00:15	31.3	31.3	31.3	77	24.9	1	3	270	0.00	29.730 
00:20	31.3	31.3	31.3	77	24.9	1	2	270	0.00	29.730 
00:25	31.3	31.3	31.3	76	24.6	1	6	292	0.00	29.730 
00:30	31.3	31.3	31.3	76	24.6	1	3	315	0.00	29.730 
00:35	31.3	31.3	31.3	76	24.6	2	6	292	0.00	29.730 
00:40	31.3	31.3	31.3	76	24.6	1	3	292	0.00	29.730 
00:45	31.3	31.3	31.3	76	24.6	1	3	292	0.00	29.733 
00:50	31.3	31.3	31.3	75	24.3	2	4	270	0.00	29.733 
00:55	31.5	31.5	31.5	76	24.8	1	4	292	0.00	29.733 
01:00	31.3	31.3	31.3	76	24.6	1	6	292	0.00	29.735 
01:05	31.3	31.3	31.3	76	24.6	1	3	315	0.00	29.735 
01:10	31.2	31.2	31.2	77	24.8	1	4	292	0.00	29.735 
01:15	31.2	31.2	31.2	77	24.8	1	5	292	0.00	29.735 
01:20	31.0	31.0	31.0	77	24.7	2	5	315	0.00	29.735 
01:25	31.0	31.0	31.0	77	24.7	2	6	292	0.00	29.735 
01:30	30.7	30.7	30.7	78	24.7	2	5	315	0.00	29.738 
01:35	30.6	30.6	30.6	79	24.9	1	5	338	0.00	29.738 
01:40	30.4	30.4	30.4	79	24.7	2	5	315	0.00	29.738 
01:45	30.3	30.3	30.3	79	24.6	1	4	270	0.00	29.739 
01:50	30.1	30.1	30.1	79	24.4	1	5	292	0.00	29.739 
01:55	30.1	30.1	30.1	79	24.4	1	2	292	0.00	29.739 
02:00	30.0	30.0	30.0	79	24.3	1	5	292	0.00	29.743 
02:05	30.0	30.0	30.0	78	24.0	2	5	292	0.00	29.743 
02:10	30.0	30.0	30.0	78	24.0	2	4	292	0.00	29.743 
02:15	29.8	29.8	29.8	78	23.8	2	5	292	0.00	29.746 
02:20	29.8	29.8	29.8	78	23.8	2	4	292	0.00	29.746 
02:25	29.7	29.7	29.7	78	23.7	1	3	292	0.00	29.746 
02:30	29.7	29.7	29.7	78	23.7	1	5	292	0.00	29.749 
02:35	29.5	29.5	29.5	78	23.5	1	2	292	0.00	29.749 
02:40	29.5	29.5	29.5	79	23.8	1	5	292	0.00	29.749 
02:45	29.5	29.5	29.5	79	23.8	1	3	338	0.00	29.752 
02:50	29.4	29.4	29.4	80	24.0	0	2	338	0.00	29.752 
02:55	29.4	29.4	29.4	80	24.0	0	1	338	0.00	29.752 
03:00	29.4	29.4	29.4	81	24.3	0	1	338	0.00	29.759 
03:05	29.4	29.4	29.4	81	24.3	0	2	338	0.00	29.759 
03:10	29.4	29.4	29.4	81	24.3	1	3	315	0.00	29.759 
03:15	29.4	29.4	29.4	81	24.3	1	3	292	0.00	29.765 
03:20	29.3	29.3	29.3	81	24.2	0	3	292	0.00	29.765 
03:25	29.3	29.3	29.3	80	23.9	1	3	292	0.00	29.765 
03:30	29.3	29.3	29.3	79	23.6	1	5	292	0.00	29.767 
03:35	29.1	29.1	29.1	78	23.1	1	4	315	0.00	29.767 
03:40	29.1	29.1	29.1	77	22.8	1	5	315	0.00	29.767 
03:45	29.1	29.1	29.1	77	22.8	2	5	270	0.00	29.775 
03:50	29.1	29.1	29.1	76	22.5	2	5	292	0.00	29.775 
03:55	29.0	29.0	29.0	76	22.4	2	5	292	0.00	29.775 
04:00	29.0	29.0	29.0	77	22.7	2	5	315	0.00	29.780 
04:05	28.8	28.8	28.8	77	22.5	2	4	315	0.00	29.780 
04:10	28.7	28.7	28.7	78	22.7	2	6	315	0.00	29.780 
04:15	28.4	28.4	28.4	79	22.7	2	6	292	0.00	29.782 
04:20	28.2	28.2	28.2	80	22.8	1	4	315	0.00	29.782 
04:25	28.2	28.2	28.2	80	22.8	1	3	315	0.00	29.782 
04:30	28.1	28.1	28.1	80	22.7	1	4	292	0.00	29.786 
04:35	27.9	27.9	27.9	80	22.5	1	6	292	0.00	29.786 
04:40	27.9	27.9	27.9	80	22.5	1	4	315	0.00	29.786 
04:45	27.9	27.9	27.9	79	22.2	1	4	292	0.00	29.794 
04:50	27.9	27.9	27.9	79	22.2	0	2	292	0.00	29.794 
04:55	27.8	27.8	27.8	80	22.4	0	2	292	0.00	29.794 
05:00	27.8	27.8	27.8	80	22.4	0	3	292	0.00	29.802 
05:05	27.6	27.6	27.6	80	22.3	0	2	292	0.00	29.802 
05:10	27.6	27.6	27.6	80	22.3	1	3	292	0.00	29.802 
05:15	27.6	27.6	27.6	80	22.3	1	5	292	0.00	29.812 
05:20	27.6	27.6	27.6	79	22.0	1	3	292	0.00	29.812 
05:25	27.5	27.5	27.5	78	21.6	1	5	292	0.00	29.812 
05:30	27.3	27.3	27.3	77	21.1	1	4	292	0.00	29.815 
05:35	27.2	27.2	27.2	77	21.0	0	2	292	0.00	29.815 
05:40	27.0	27.0	27.0	76	20.5	2	6	292	0.00	29.815 
05:45	26.9	26.9	26.9	76	20.4	2	5	292	0.00	29.821 
05:50	26.7	26.7	26.7	75	19.9	1	2	292	0.00	29.821 
05:55	26.6	26.6	26.6	75	19.8	2	7	292	0.00	29.821 
06:00	26.4	26.4	26.4	73	18.9	2	5	338	0.00	29.831 
06:05	26.3	26.3	26.3	71	18.2	2	5	270	0.00	29.831 
06:10	26.1	26.1	26.1	70	17.7	2	5	292	0.00	29.831 
06:15	26.1	26.1	26.1	69	17.3	1	5	292	0.00	29.842 
06:20	26.1	26.1	26.1	69	17.3	2	6	292	0.00	29.842 
06:25	26.3	26.3	26.3	69	17.5	1	4	338	0.00	29.842 
06:30	26.3	26.3	26.3	69	17.5	1	3	292	0.00	29.852 
06:35	26.3	26.3	26.3	70	17.9	1	4	315	0.00	29.852 
06:40	26.3	26.3	26.3	70	17.9	1	5	292	0.00	29.852 
06:45	26.3	26.3	26.3	70	17.9	2	6	292	0.00	29.855 
06:50	26.1	26.1	26.1	69	17.3	2	6	292	0.00	29.855 
06:55	26.0	26.0	26.0	68	16.9	1	4	292	0.00	29.855 
07:00	25.8	25.8	25.8	67	16.4	2	7	292	0.00	29.864 
07:05	25.8	25.8	25.8	66	16.0	3	7	292	0.00	29.864 
07:10	25.7	25.7	25.7	66	15.9	2	6	270	0.00	29.864 
07:15	25.6	25.6	25.6	66	15.8	2	6	270	0.00	29.872 
07:20	25.7	25.7	25.7	66	15.9	2	5	270	0.00	29.872 
07:25	25.8	25.8	25.8	66	16.0	1	5	292	0.00	29.872 
07:30	25.8	25.8	25.8	66	16.0	2	6	292	0.00	29.881 
07:35	26.0	26.0	26.0	66	16.2	1	4	292	0.00	29.881 
07:40	26.0	26.0	26.0	66	16.2	1	5	292	0.00	29.881 
07:45	26.0	26.0	26.0	66	16.2	2	6	292	0.00	29.890 
07:50	26.0	26.0	26.0	65	15.9	3	10	292	0.00	29.890 
07:55	26.0	26.0	26.0	65	15.9	1	4	292	0.00	29.890 
08:00	26.0	26.0	26.0	65	15.9	1	4	338	0.00	29.899 
08:05	25.8	25.8	25.8	64	15.3	3	8	0	0.00	29.899 
08:10	25.7	25.7	25.7	64	15.2	3	9	338	0.00	29.899 
08:15	25.7	25.7	25.7	64	15.2	3	7	292	0.00	29.913 
08:20	25.7	25.7	25.7	64	15.2	2	7	292	0.00	29.913 
08:25	25.7	25.7	25.7	65	15.6	2	7	292	0.00	29.913 
08:30	25.7	25.7	25.7	64	15.2	2	5	292	0.00	29.918 
08:35	25.6	25.6	25.6	64	15.1	2	6	315	0.00	29.918 
08:40	25.6	25.6	25.6	64	15.1	3	9	292	0.00	29.918 
08:45	25.6	25.6	25.6	64	15.1	3	9	292	0.00	29.922 
08:50	25.4	25.4	25.4	64	14.9	3	9	292	0.00	29.922 
08:55	25.4	25.4	25.4	64	14.9	3	9	292	0.00	29.922 
09:00	25.4	25.4	25.4	64	14.9	2	8	270	0.00	29.930 
09:05	25.4	25.4	25.4	64	14.9	2	6	292	0.00	29.930 
09:10	25.4	25.4	25.4	64	14.9	2	4	292	0.00	29.930 
09:15	25.4	25.4	25.4	64	14.9	2	6	315	0.00	29.937 
09:20	25.4	25.4	25.4	64	14.9	1	5	338	0.00	29.937 
09:25	25.6	25.6	25.6	64	15.1	2	6	292	0.00	29.937 
09:30	25.6	25.6	25.6	65	15.5	1	3	292	0.00	29.941 
09:35	25.7	25.7	25.7	65	15.6	1	3	292	0.00	29.941 
09:40	25.8	25.8	25.8	65	15.7	1	3	315	0.00	29.941 
09:45	26.0	26.0	26.0	65	15.9	1	4	292	0.00	29.947 
09:50	26.1	26.1	26.1	65	16.0	1	3	292	0.00	29.947 
09:55	26.3	26.3	26.3	65	16.2	1	4	292	0.00	29.947 
10:00	26.1	26.1	26.1	64	15.6	2	7	315	0.00	29.951 
10:05	26.3	26.3	26.3	64	15.8	2	5	292	0.00	29.951 
10:10	26.3	26.3	26.3	65	16.2	2	5	292	0.00	29.951 
10:15	26.4	26.4	26.4	64	15.9	2	4	248	0.00	29.962 
10:20	26.4	26.4	26.4	63	15.5	2	5	338	0.00	29.962 
10:25	26.4	26.4	26.4	63	15.5	2	5	270	0.00	29.962 
10:30	26.6	26.6	26.6	63	15.7	1	4	292	0.00	29.966 
10:35	26.6	26.6	26.6	62	15.4	3	6	292	0.00	29.966 
10:40	26.6	26.6	26.6	62	15.4	2	7	292	0.00	29.966 
10:45	26.9	26.9	26.9	62	15.6	1	4	292	0.00	29.967 
10:50	27.3	27.3	27.3	63	16.4	1	7	292	0.00	29.967 
10:55	27.6	27.6	27.6	62	16.3	1	3	292	0.00	29.967 
11:00	28.1	28.1	28.1	62	16.8	1	4	292	0.00	29.972 
11:05	28.1	28.1	28.1	61	16.4	1	4	270	0.00	29.972 
11:10	28.2	28.2	28.2	61	16.5	1	3	270	0.00	29.972 
11:15	28.2	28.2	28.2	61	16.5	2	4	270	0.00	29.981 
11:20	28.5	28.5	28.5	61	16.8	1	4	0	0.00	29.981 
11:25	28.5	28.5	28.5	61	16.8	2	5	292	0.00	29.981 
11:30	28.2	28.2	28.2	60	16.1	1	5	292	0.00	29.986 
11:35	28.5	28.5	28.5	61	16.8	2	5	315	0.00	29.986 
11:40	28.7	28.7	28.7	61	17.0	1	5	292	0.00	29.986 
11:45	28.8	28.8	28.8	59	16.3	1	5	270	0.00	29.984 
11:50	29.0	29.0	29.0	60	16.9	1	4	270	0.00	29.984 
11:55	29.1	29.1	29.1	60	17.0	1	6	270	0.00	29.984 
12:00	29.0	29.0	29.0	59	16.5	2	5	270	0.00	29.981 
12:05	29.0	29.0	29.0	59	16.5	1	3	292	0.00	29.981 
12:10	29.1	29.1	29.1	60	17.0	1	3	292	0.00	29.981 
12:15	29.1	29.1	29.1	59	16.6	1	3	292	0.00	29.979 
12:20	29.4	29.4	29.4	61	17.6	1	3	270	0.00	29.979 
12:25	29.7	29.7	29.7	58	16.8	1	4	270	0.00	29.979 
12:30	29.5	29.5	29.5	58	16.6	2	4	270	0.00	29.979 
12:35	29.4	29.4	29.4	58	16.5	2	4	338	0.00	29.979 
12:40	29.4	29.4	29.4	57	16.1	1	4	292	0.00	29.979 
12:45	29.7	29.7	29.7	58	16.8	2	4	292	0.00	29.978 
12:50	29.8	29.8	29.8	59	17.2	2	4	315	0.00	29.978 
12:55	30.1	30.1	30.1	58	17.1	1	3	292	0.00	29.978 
13:00	30.4	30.4	30.4	57	17.0	1	3	292	0.00	29.977 
13:05	30.6	30.6	30.6	57	17.2	1	4	292	0.00	29.977 
13:10	30.7	30.7	30.7	57	17.3	1	3	292	0.00	29.977 
13:15	30.9	30.9	30.9	58	17.9	1	4	270	0.00	29.972 
13:20	31.0	31.0	31.0	58	18.0	2	4	248	0.00	29.972 
13:25	31.2	31.2	31.2	57	17.8	1	4	248	0.00	29.972 
13:30	31.2	31.2	31.2	56	17.4	0	4	248	0.00	29.966 
13:35	31.5	31.5	31.5	56	17.6	1	3	248	0.00	29.966 
13:40	31.5	31.5	31.5	55	17.2	1	3	248	0.00	29.966 
13:45	31.8	31.8	31.8	56	17.9	1	2	248	0.00	29.963 
13:50	32.1	32.1	32.1	56	18.2	1	2	248	0.00	29.963 
13:55	31.9	31.9	31.9	55	17.6	1	4	292	0.00	29.963 
14:00	31.8	31.8	31.8	55	17.5	2	4	0	0.00	29.959 
14:05	31.6	31.6	31.6	55	17.3	2	5	315	0.00	29.959 
14:10	32.2	32.2	32.2	55	17.9	1	5	315	0.00	29.959 
14:15	32.4	32.4	32.4	54	17.6	1	3	292	0.00	29.953 
14:20	32.5	32.5	32.5	53	17.3	1	2	292	0.00	29.953 
14:25	32.5	32.5	32.5	54	17.7	1	3	292	0.00	29.953 
14:30	32.7	32.7	32.7	54	17.9	1	4	292	0.00	29.949 
14:35	32.7	32.7	32.7	54	17.9	1	3	292	0.00	29.949 
14:40	32.8	32.8	32.8	54	18.0	1	4	292	0.00	29.949 
14:45	32.5	32.5	32.5	54	17.7	2	5	315	0.00	29.948 
14:50	32.7	32.7	32.7	54	17.9	1	4	292	0.00	29.948 
14:55	32.7	32.7	32.7	54	17.9	1	3	292	0.00	29.948 
15:00	32.8	32.8	32.8	52	17.1	1	3	292	0.00	29.947 
15:05	32.9	32.9	32.9	53	17.7	0	2	292	0.00	29.947 
15:10	33.1	33.1	33.1	54	18.3	0	2	292	0.00	29.947 
15:15	33.2	33.2	33.2	52	17.5	1	3	292	0.00	29.950 
15:20	33.2	33.2	33.2	51	17.1	1	3	292	0.00	29.950 
15:25	33.4	33.4	33.4	52	17.7	0	2	292	0.00	29.950 
15:30	33.7	33.7	33.7	52	18.0	1	2	292	0.00	29.948 
15:35	33.8	33.8	33.8	51	17.6	1	3	292	0.00	29.948 
15:40	33.8	33.8	33.8	51	17.6	1	3	292	0.00	29.948 
15:45	33.7	33.7	33.7	51	17.5	1	3	292	0.00	29.952 
15:50	33.5	33.5	33.5	51	17.3	1	4	292	0.00	29.952 
15:55	33.4	33.4	33.4	50	16.8	2	4	292	0.00	29.952 
16:00	33.4	33.4	33.4	50	16.8	2	4	292	0.00	29.960 
16:05	33.2	33.2	33.2	51	17.1	0	3	248	0.00	29.960 
16:10	33.5	33.5	33.5	51	17.3	1	3	248	0.00	29.960 
16:15	33.5	33.5	33.5	51	17.3	0	3	248	0.00	29.956 
16:20	33.5	33.5	33.5	52	17.8	0	1	248	0.00	29.956 
16:25	33.7	33.7	33.7	52	18.0	0	3	248	0.00	29.956 
16:30	33.7	33.7	33.7	52	18.0	0	2	248	0.00	29.953 
16:35	33.5	33.5	33.5	52	17.8	1	3	248	0.00	29.953 
16:40	33.2	33.2	33.2	53	17.9	1	3	248	0.00	29.953 
16:45	33.2	33.2	33.2	54	18.4	0	2	248	0.00	29.962 
16:50	33.2	33.2	33.2	53	17.9	0	2	248	0.00	29.962 
16:55	33.2	33.2	33.2	54	18.4	0	2	248	0.00	29.962 
17:00	33.2	33.2	33.2	53	17.9	0	2	248	0.00	29.958 
17:05	33.1	33.1	33.1	54	18.3	0	2	248	0.00	29.958 
17:10	33.1	33.1	33.1	54	18.3	0	1	248	0.00	29.958 
17:15	32.8	32.8	32.8	55	18.4	0	1	248	0.00	29.953 
17:20	32.7	32.7	32.7	55	18.3	0	1	248	0.00	29.953 
17:25	32.5	32.5	32.5	56	18.6	0	1	248	0.00	29.953 
17:30	32.2	32.2	32.2	56	18.3	0	1	248	0.00	29.950 
17:35	31.9	31.9	31.9	56	18.0	0	1	248	0.00	29.950 
17:40	31.8	31.8	31.8	56	17.9	0	1	248	0.00	29.950 
17:45	31.6	31.6	31.6	56	17.7	0	0	---	0.00	29.950 
17:50	31.5	31.5	31.5	56	17.6	0	0	---	0.00	29.950 
17:55	31.2	31.2	31.2	57	17.8	0	0	---	0.00	29.950 
18:00	30.9	30.9	30.9	57	17.5	0	0	---	0.00	29.952 
18:05	30.6	30.6	30.6	58	17.6	0	0	---	0.00	29.952 
18:10	30.3	30.3	30.3	58	17.3	0	0	---	0.00	29.952 
18:15	30.0	30.0	30.0	58	17.0	0	0	---	0.00	29.954 
18:20	29.7	29.7	29.7	60	17.5	0	0	---	0.00	29.954 
18:25	29.4	29.4	29.4	61	17.6	0	0	---	0.00	29.954 
18:30	29.1	29.1	29.1	62	17.7	0	0	---	0.00	29.954 
18:35	28.8	28.8	28.8	63	17.8	0	0	---	0.00	29.954 
18:40	28.5	28.5	28.5	63	17.5	0	0	---	0.00	29.954 
18:45	28.4	28.4	28.4	64	17.8	0	0	---	0.00	29.959 
18:50	28.1	28.1	28.1	64	17.5	0	0	---	0.00	29.959 
18:55	27.9	27.9	27.9	65	17.7	0	0	---	0.00	29.959 
19:00	27.8	27.8	27.8	65	17.6	0	0	---	0.00	29.966 
19:05	27.6	27.6	27.6	66	17.8	0	0	---	0.00	29.966 
19:10	27.5	27.5	27.5	67	18.0	0	0	---	0.00	29.966 
19:15	27.6	27.6	27.6	68	18.4	0	1	248	0.00	29.955 
19:20	27.8	27.8	27.8	67	18.3	0	1	248	0.00	29.955 
19:25	28.2	28.2	28.2	66	18.3	0	0	---	0.00	29.955 
19:30	28.7	28.7	28.7	65	18.4	0	1	248	0.00	29.955 
19:35	29.1	29.1	29.1	65	18.8	0	0	---	0.00	29.955 
19:40	29.3	29.3	29.3	65	19.0	0	1	248	0.00	29.955 
19:45	29.5	29.5	29.5	63	18.5	0	1	248	0.00	29.952 
19:50	29.7	29.7	29.7	63	18.7	0	0	---	0.00	29.952 
19:55	30.0	30.0	30.0	64	19.3	0	1	248	0.00	29.952 
20:00	30.1	30.1	30.1	63	19.0	0	1	248	0.00	29.941 
20:05	30.3	30.3	30.3	62	18.9	0	2	225	0.00	29.941 
20:10	30.4	30.4	30.4	63	19.3	0	1	202	0.00	29.941 
20:15	30.6	30.6	30.6	63	19.5	0	2	202	0.00	29.934 
20:20	30.6	30.6	30.6	63	19.5	0	1	202	0.00	29.934 
20:25	30.7	30.7	30.7	63	19.6	0	1	202	0.00	29.934 
20:30	30.7	30.7	30.7	64	20.0	0	1	202	0.00	29.927 
20:35	30.7	30.7	30.7	64	20.0	0	0	---	0.00	29.927 
20:40	30.7	30.7	30.7	65	20.3	0	1	202	0.00	29.927 
20:45	30.7	30.7	30.7	64	20.0	0	1	202	0.00	29.923 
20:50	30.7	30.7	30.7	64	20.0	0	2	202	0.00	29.923 
20:55	30.7	30.7	30.7	64	20.0	0	1	135	0.00	29.923 
21:00	30.7	30.7	30.7	65	20.3	0	1	135	0.00	29.935 
21:05	30.6	30.6	30.6	65	20.3	0	0	---	0.00	29.935 
21:10	30.4	30.4	30.4	66	20.4	0	0	---	0.00	29.935 
21:15	30.4	30.4	30.4	66	20.4	0	1	135	0.00	29.935 
21:20	30.4	30.4	30.4	67	20.8	0	1	135	0.00	29.935 
21:25	30.6	30.6	30.6	66	20.6	0	2	135	0.00	29.935 
21:30	30.7	30.7	30.7	66	20.7	0	3	112	0.00	29.918 
21:35	30.7	30.7	30.7	66	20.7	0	1	112	0.00	29.918 
21:40	30.9	30.9	30.9	66	20.9	0	1	112	0.00	29.918 
21:45	30.9	30.9	30.9	66	20.9	0	1	112	0.00	29.921 
21:50	30.9	30.9	30.9	66	20.9	0	1	112	0.00	29.921 
21:55	30.9	30.9	30.9	66	20.9	0	2	112	0.00	29.921 
22:00	31.0	31.0	31.0	66	21.0	0	2	112	0.00	29.915 
22:05	31.0	31.0	31.0	66	21.0	0	2	112	0.00	29.915 
22:10	31.0	31.0	31.0	66	21.0	0	4	112	0.00	29.915 
22:15	31.2	31.2	31.2	66	21.2	0	5	112	0.00	29.903 
22:20	31.2	31.2	31.2	66	21.2	0	3	112	0.00	29.903 
22:25	31.2	31.2	31.2	66	21.2	0	2	112	0.00	29.903 
22:30	31.2	31.2	31.2	66	21.2	0	2	112	0.00	29.887 
22:35	31.2	31.2	31.2	66	21.2	0	2	112	0.00	29.887 
22:40	31.3	31.3	31.3	65	20.9	1	3	112	0.00	29.887 
22:45	31.3	31.3	31.3	65	20.9	1	3	112	0.00	29.878 
22:50	31.5	31.5	31.5	65	21.1	1	2	112	0.00	29.878 
22:55	31.5	31.5	31.5	65	21.1	1	4	112	0.00	29.878 
23:00	31.6	31.6	31.6	65	21.2	0	2	112	0.00	29.871 
23:05	31.6	31.6	31.6	64	20.8	1	3	112	0.00	29.871 
23:10	31.8	31.8	31.8	64	21.0	1	6	90	0.00	29.871 
23:15	31.8	31.8	31.8	63	20.7	1	4	90	0.00	29.859 
23:20	31.9	31.9	31.9	62	20.4	1	4	90	0.00	29.859 
23:25	32.1	32.1	32.1	62	20.6	1	3	90	0.00	29.859 
23:30	32.2	32.2	32.2	61	20.3	1	4	90	0.00	29.854 
23:35	32.2	32.2	32.2	61	20.3	1	4	90	0.00	29.854 
23:40	32.2	32.2	32.2	61	20.3	1	5	90	0.00	29.854 
23:45	32.4	32.4	32.4	60	20.1	1	4	112	0.00	29.847 
23:50	32.4	32.4	32.4	60	20.1	1	3	112	0.00	29.847 
23:55	32.4	32.4	32.4	61	20.5	1	4	90	0.00	29.847 

CoCoRaHS
IN-AL-39
A2 Web Hosting
Creative Commons License
GoDaddy
search engine by freefind advanced

loaded 2018-11-15 14:01:38 • last modified 2010-11-18 10:43:29
Privacy PolicyDisclaimer
• wx.awcolley.com is powered by PmWiki v.2002016 •
• all content (unless otherwise noted) © 2018 A W Colley